Time;durP1;ratioP1;P1;durP2;ratioP2;P2;SDS_P1;SDS_P2;PMS_P1;PMS_P2;Temp;Humidity;BMP_temperature;BMP_pressure;BME280_temperature;BME280_humidity;BME280_pressure;Samples;Min_cycle;Max_cycle;Signal;HPM_P1;HPM_P2
2023/04/18 00:02:01;;;;;;;18.40;16.50;;;;;;;;;;5034545;28;20566;-76
2023/04/18 00:04:29;;;;;;;16.90;15.17;;;;;;;;;;5034443;28;20458;-76
2023/04/18 00:06:57;;;;;;;19.33;17.27;;;;;;;;;;5034805;28;20482;-76
2023/04/18 00:09:28;;;;;;;17.40;15.60;;;;;;;;;;5035466;28;20458;-76
2023/04/18 00:11:56;;;;;;;19.10;16.00;;;;;;;;;;5035195;28;20474;-75
2023/04/18 00:14:28;;;;;;;18.50;16.70;;;;;;;;;;5034624;28;20458;-75
2023/04/18 00:17:07;;;;;;;18.83;16.93;;;;;;;;;;5034539;28;20502;-76
2023/04/18 00:19:46;;;;;;;17.50;15.70;;;;;;;;;;5034452;28;20489;-76
2023/04/18 00:22:15;;;;;;;18.87;16.97;;;;;;;;;;5034280;28;20502;-76
2023/04/18 00:24:44;;;;;;;21.00;17.33;;;;;;;;;;5034260;28;20546;-76
2023/04/18 00:27:16;;;;;;;18.90;16.90;;;;;;;;;;5035097;28;20993;-75
2023/04/18 00:29:45;;;;;;;19.43;17.50;;;;;;;;;;5034589;28;20529;-77
2023/04/18 00:32:25;;;;;;;19.70;17.70;;;;;;;;;;5033841;28;20942;-78
2023/04/18 00:34:56;;;;;;;18.87;16.97;;;;;;;;;;5034531;28;20436;-77
2023/04/18 00:37:25;;;;;;;18.47;16.77;;;;;;;;;;5034584;28;20494;-75
2023/04/18 00:39:53;;;;;;;17.77;15.80;;;;;;;;;;5036266;28;20454;-76
2023/04/18 00:42:30;;;;;;;19.40;17.40;;;;;;;;;;5037706;28;20462;-77
2023/04/18 00:44:58;;;;;;;17.70;15.90;;;;;;;;;;5042870;28;20423;-75
2023/04/18 00:47:34;;;;;;;17.60;15.90;;;;;;;;;;5044898;28;21028;-75
2023/04/18 00:50:03;;;;;;;17.87;15.97;;;;;;;;;;5041174;28;20450;-75
2023/04/18 00:52:34;;;;;;;18.37;16.47;;;;;;;;;;5040739;28;20958;-77
2023/04/18 00:55:08;;;;;;;18.33;16.43;;;;;;;;;;5041515;28;20545;-76
2023/04/18 00:57:36;;;;;;;19.63;17.10;;;;;;;;;;5040196;28;20504;-76
2023/04/18 01:00:08;;;;;;;18.90;16.03;;;;;;;;;;5041134;28;20577;-76
2023/04/18 01:02:38;;;;;;;19.53;16.00;;;;;;;;;;5040953;28;20455;-76
2023/04/18 01:05:09;;;;;;;18.80;16.67;;;;;;;;;;5041278;28;20872;-75
2023/04/18 01:07:42;;;;;;;18.73;16.67;;;;;;;;;;5039412;28;20894;-75
2023/04/18 01:10:14;;;;;;;18.47;16.57;;;;;;;;;;5037348;28;20543;-76
2023/04/18 01:12:54;;;;;;;19.20;16.97;;;;;;;;;;5035918;28;20458;-77
2023/04/18 01:15:30;;;;;;;17.80;16.07;;;;;;;;;;5035964;28;20454;-76
2023/04/18 01:18:06;;;;;;;18.87;16.97;;;;;;;;;;5043373;28;20543;-76
2023/04/18 01:20:46;;;;;;;18.73;16.27;;;;;;;;;;5057300;28;20476;-76
2023/04/18 01:23:19;;;;;;;17.60;15.77;;;;;;;;;;5057717;28;20446;-76
2023/04/18 01:25:56;;;;;;;19.07;17.17;;;;;;;;;;5055310;28;20876;-75
2023/04/18 01:28:41;;;;;;;18.60;16.67;;;;;;;;;;5059224;28;20461;-77
2023/04/18 01:34:18;;;;;;;18.03;16.13;;;;;;;;;;5045750;28;20447;-75
2023/04/18 01:36:55;;;;;;;16.13;14.43;;;;;;;;;;5057601;28;20472;-76
2023/04/18 01:39:58;;;;;;;16.70;15.00;;;;;;;;;;5056808;28;20539;-75
2023/04/18 01:42:36;;;;;;;17.47;14.23;;;;;;;;;;5054408;28;20477;-76
2023/04/18 01:45:23;;;;;;;16.00;14.33;;;;;;;;;;5052723;28;20449;-76
2023/04/18 01:47:51;;;;;;;16.57;14.77;;;;;;;;;;5052519;28;20560;-75
2023/04/18 01:50:26;;;;;;;16.97;15.30;;;;;;;;;;5052807;28;20544;-77
2023/04/18 01:53:01;;;;;;;16.07;14.37;;;;;;;;;;5051962;28;20959;-76
2023/04/18 01:55:35;;;;;;;16.27;14.67;;;;;;;;;;5052612;28;20449;-75
2023/04/18 01:58:09;;;;;;;16.33;14.67;;;;;;;;;;5053607;28;20484;-75
2023/04/18 02:00:40;;;;;;;18.00;14.17;;;;;;;;;;5053166;28;20913;-76
2023/04/18 02:03:08;;;;;;;17.43;15.53;;;;;;;;;;5057759;28;20484;-75
2023/04/18 02:05:38;;;;;;;18.60;15.63;;;;;;;;;;5058363;28;20476;-76
2023/04/18 02:08:10;;;;;;;16.60;14.73;;;;;;;;;;5058988;28;20580;-75
2023/04/18 02:10:38;;;;;;;17.03;15.20;;;;;;;;;;5059537;28;20805;-75
2023/04/18 02:13:08;;;;;;;17.50;15.70;;;;;;;;;;5059733;28;20531;-75
2023/04/18 02:15:38;;;;;;;17.47;15.70;;;;;;;;;;5058416;28;20456;-75
2023/04/18 02:18:12;;;;;;;17.23;15.53;;;;;;;;;;5059791;28;20480;-76
2023/04/18 02:24:00;;;;;;;19.47;16.47;;;;;;;;;;5140220;27;20538;-76
2023/04/18 02:26:34;;;;;;;17.13;15.33;;;;;;;;;;5124607;27;20508;-77
2023/04/18 02:32:07;;;;;;;16.80;15.20;;;;;;;;;;5101446;28;20438;-76
2023/04/18 02:34:45;;;;;;;18.23;16.33;;;;;;;;;;5102517;28;20439;-75
2023/04/18 02:37:26;;;;;;;17.00;15.13;;;;;;;;;;5103628;28;20498;-77
2023/04/18 02:40:06;;;;;;;16.57;14.30;;;;;;;;;;5104998;28;20950;-76
2023/04/18 02:42:46;;;;;;;16.33;14.73;;;;;;;;;;5108247;28;20460;-76
2023/04/18 02:45:18;;;;;;;18.50;15.07;;;;;;;;;;5108696;28;20448;-75
2023/04/18 02:47:54;;;;;;;16.27;14.57;;;;;;;;;;5106359;28;20464;-75
2023/04/18 02:50:42;;;;;;;16.57;14.73;;;;;;;;;;5101770;28;20440;-76
2023/04/18 02:53:14;;;;;;;16.27;14.67;;;;;;;;;;5100491;28;20440;-76
2023/04/18 02:58:43;;;;;;;16.50;14.20;;;;;;;;;;5093988;28;20983;-76
2023/04/18 03:01:17;;;;;;;16.00;14.47;;;;;;;;;;5094306;28;20444;-76
2023/04/18 03:03:50;;;;;;;16.97;13.80;;;;;;;;;;5092315;28;20479;-76
2023/04/18 03:06:32;;;;;;;16.20;14.50;;;;;;;;;;5090239;28;20466;-77
2023/04/18 03:09:00;;;;;;;17.00;14.33;;;;;;;;;;5090965;28;20455;-76
2023/04/18 03:11:47;;;;;;;15.80;14.20;;;;;;;;;;5092941;28;20432;-75
2023/04/18 03:14:18;;;;;;;16.03;14.47;;;;;;;;;;5089837;28;20452;-76
2023/04/18 03:16:55;;;;;;;16.50;14.67;;;;;;;;;;5090497;28;20559;-75
2023/04/18 03:19:32;;;;;;;17.10;15.30;;;;;;;;;;5107865;28;20516;-75
2023/04/18 03:22:01;;;;;;;14.67;13.17;;;;;;;;;;5110317;28;20496;-76
2023/04/18 03:24:33;;;;;;;15.70;14.07;;;;;;;;;;5110410;28;20455;-75
2023/04/18 03:27:04;;;;;;;17.97;15.03;;;;;;;;;;5110024;28;20525;-75
2023/04/18 03:29:43;;;;;;;18.13;14.93;;;;;;;;;;5110632;28;20447;-75
2023/04/18 03:35:12;;;;;;;18.07;14.80;;;;;;;;;;5094909;28;20435;-75
2023/04/18 03:38:10;;;;;;;;;;;;;;;;;;;;;
2023/04/18 03:41:13;;;;;;;16.43;14.83;;;;;;;;;;5097665;28;20442;-76
2023/04/18 03:43:54;;;;;;;17.00;15.10;;;;;;;;;;5096869;28;20493;-75
2023/04/18 03:46:29;;;;;;;16.43;14.73;;;;;;;;;;5096400;28;20479;-75
2023/04/18 03:49:03;;;;;;;16.57;14.80;;;;;;;;;;5095972;28;20452;-76
2023/04/18 03:51:52;;;;;;;18.23;16.20;;;;;;;;;;5096178;28;20462;-76
2023/04/18 03:54:26;;;;;;;16.23;14.53;;;;;;;;;;5095878;28;20459;-77
2023/04/18 03:57:04;;;;;;;16.13;14.50;;;;;;;;;;5096075;28;20495;-76
2023/04/18 03:59:56;;;;;;;16.90;14.37;;;;;;;;;;5095586;28;20455;-76
2023/04/18 04:08:36;;;;;;;16.13;14.43;;;;;;;;;;5058550;28;20543;-76
2023/04/18 04:11:07;;;;;;;17.20;14.67;;;;;;;;;;5094822;28;20456;-76
2023/04/18 04:13:44;;;;;;;16.60;14.80;;;;;;;;;;5096046;28;20459;-77
2023/04/18 04:19:27;;;;;;;19.80;16.13;;;;;;;;;;5095274;28;20826;-76
2023/04/18 04:21:57;;;;;;;16.63;15.00;;;;;;;;;;5095814;28;20592;-76
2023/04/18 04:24:34;;;;;;;18.10;15.20;;;;;;;;;;5095288;28;20455;-76
2023/04/18 04:27:43;;;;;;;20.33;15.70;;;;;;;;;;5093439;28;20470;-76
2023/04/18 04:33:05;;;;;;;16.20;13.97;;;;;;;;;;5084167;28;20422;-75
2023/04/18 04:49:08;;;;;;;18.93;16.80;;;;;;;;;;5106695;27;20322;-77
2023/04/18 04:51:36;;;;;;;17.20;15.47;;;;;;;;;;5087064;28;20805;-76
2023/04/18 04:54:13;;;;;;;17.80;14.87;;;;;;;;;;5087128;28;20460;-77
2023/04/18 04:56:41;;;;;;;17.90;16.20;;;;;;;;;;5081924;28;20580;-78
2023/04/18 04:59:09;;;;;;;17.53;15.20;;;;;;;;;;5066887;28;20456;-76
2023/04/18 05:01:38;;;;;;;18.60;16.07;;;;;;;;;;5066901;28;20461;-76
2023/04/18 05:04:12;;;;;;;17.33;15.53;;;;;;;;;;5066864;28;20457;-75
2023/04/18 05:06:44;;;;;;;18.40;16.37;;;;;;;;;;5067303;28;20477;-77
2023/04/18 05:09:18;;;;;;;17.63;15.83;;;;;;;;;;5067941;28;20457;-79
2023/04/18 05:11:48;;;;;;;17.77;15.93;;;;;;;;;;5067769;28;20509;-76
2023/04/18 05:14:22;;;;;;;17.90;15.77;;;;;;;;;;5066382;28;20433;-76
2023/04/18 05:16:53;;;;;;;18.77;16.80;;;;;;;;;;5067717;28;21258;-78
2023/04/18 05:19:21;;;;;;;18.43;16.20;;;;;;;;;;5066897;28;20988;-77
2023/04/18 05:21:50;;;;;;;18.77;16.80;;;;;;;;;;5067605;28;20502;-76
2023/04/18 05:24:18;;;;;;;18.73;16.80;;;;;;;;;;5068647;28;20464;-78
2023/04/18 05:26:46;;;;;;;19.37;16.27;;;;;;;;;;5067732;28;20496;-77
2023/04/18 05:29:14;;;;;;;16.83;15.03;;;;;;;;;;5065929;28;20553;-77
2023/04/18 05:31:41;;;;;;;16.60;14.77;;;;;;;;;;5065612;28;20519;-77
2023/04/18 05:34:09;;;;;;;17.73;15.70;;;;;;;;;;5065326;28;20463;-76
2023/04/18 05:36:37;;;;;;;16.57;14.80;;;;;;;;;;5065803;28;20473;-76
2023/04/18 05:39:12;;;;;;;19.10;16.00;;;;;;;;;;5067086;28;20820;-77
2023/04/18 05:41:43;;;;;;;18.17;16.30;;;;;;;;;;5066547;28;20507;-77
2023/04/18 05:44:11;;;;;;;19.33;15.20;;;;;;;;;;5068971;28;20544;-77
2023/04/18 05:46:42;;;;;;;16.67;15.00;;;;;;;;;;5071333;28;21135;-78
2023/04/18 05:49:10;;;;;;;17.07;15.20;;;;;;;;;;5064477;28;20549;-75
2023/04/18 05:51:40;;;;;;;18.30;16.10;;;;;;;;;;5058241;28;20446;-76
2023/04/18 05:54:10;;;;;;;18.60;16.10;;;;;;;;;;5058000;28;20867;-76
2023/04/18 05:56:44;;;;;;;18.57;16.67;;;;;;;;;;5059582;28;20481;-77
2023/04/18 05:59:14;;;;;;;19.87;15.40;;;;;;;;;;5057737;28;20519;-75
2023/04/18 06:01:48;;;;;;;20.27;16.43;;;;;;;;;;5058278;28;20454;-76
2023/04/18 06:04:19;;;;;;;19.13;17.20;;;;;;;;;;5056672;28;20552;-78
2023/04/18 06:06:46;;;;;;;18.30;16.43;;;;;;;;;;5056188;28;20453;-77
2023/04/18 06:09:16;;;;;;;17.27;15.53;;;;;;;;;;5054730;28;20453;-76
2023/04/18 06:11:43;;;;;;;19.30;16.13;;;;;;;;;;5056409;28;20464;-78
2023/04/18 06:14:12;;;;;;;18.13;16.23;;;;;;;;;;5056352;28;20495;-77
2023/04/18 06:16:42;;;;;;;16.50;14.90;;;;;;;;;;5058675;28;20477;-78
2023/04/18 06:19:10;;;;;;;18.47;16.33;;;;;;;;;;5057845;28;20488;-77
2023/04/18 06:21:38;;;;;;;18.37;16.40;;;;;;;;;;5058419;28;20484;-77
2023/04/18 06:24:06;;;;;;;19.90;17.73;;;;;;;;;;5056794;28;20449;-77
2023/04/18 06:26:35;;;;;;;18.20;16.40;;;;;;;;;;5059135;28;20840;-76
2023/04/18 06:29:03;;;;;;;18.83;16.17;;;;;;;;;;5060654;28;20460;-78
2023/04/18 06:31:30;;;;;;;18.27;16.37;;;;;;;;;;5061782;28;20454;-77
2023/04/18 06:33:58;;;;;;;17.93;16.13;;;;;;;;;;5057901;28;20928;-76
2023/04/18 06:36:26;;;;;;;17.73;15.90;;;;;;;;;;5058255;28;20470;-77
2023/04/18 06:38:55;;;;;;;17.40;15.40;;;;;;;;;;5061822;28;20511;-77
2023/04/18 06:41:24;;;;;;;17.60;15.80;;;;;;;;;;5059154;28;20454;-80
2023/04/18 06:43:54;;;;;;;16.83;15.00;;;;;;;;;;5060483;28;20894;-76
2023/04/18 06:46:30;;;;;;;19.53;16.80;;;;;;;;;;5064356;28;20529;-79
2023/04/18 06:48:57;;;;;;;19.37;16.20;;;;;;;;;;5063959;28;20457;-77
2023/04/18 06:51:28;;;;;;;17.07;15.13;;;;;;;;;;5063664;28;20809;-76
2023/04/18 06:53:55;;;;;;;19.97;16.23;;;;;;;;;;5062897;28;20503;-77
2023/04/18 06:56:23;;;;;;;18.77;16.70;;;;;;;;;;5061285;28;20481;-77
2023/04/18 06:58:51;;;;;;;17.17;15.37;;;;;;;;;;5061598;28;20540;-77
2023/04/18 07:01:20;;;;;;;20.37;15.87;;;;;;;;;;5059353;28;20458;-76
2023/04/18 07:03:48;;;;;;;18.63;15.73;;;;;;;;;;5058793;28;20465;-76
2023/04/18 07:06:16;;;;;;;17.47;15.67;;;;;;;;;;5059324;28;20465;-78
2023/04/18 07:08:58;;;;;;;19.60;16.40;;;;;;;;;;5061546;28;20515;-77
2023/04/18 07:11:30;;;;;;;17.50;15.50;;;;;;;;;;5062592;28;20453;-78
2023/04/18 07:14:01;;;;;;;18.57;16.57;;;;;;;;;;5060900;28;20776;-77
2023/04/18 07:16:30;;;;;;;17.97;16.07;;;;;;;;;;5059341;28;20477;-77
2023/04/18 07:18:59;;;;;;;17.60;15.70;;;;;;;;;;5060240;28;20474;-75
2023/04/18 07:21:30;;;;;;;19.60;15.63;;;;;;;;;;5057060;28;20528;-77
2023/04/18 07:23:58;;;;;;;18.80;16.70;;;;;;;;;;5053900;28;20449;-76
2023/04/18 07:26:26;;;;;;;16.80;15.03;;;;;;;;;;5053701;28;20862;-76
2023/04/18 07:28:54;;;;;;;17.00;15.30;;;;;;;;;;5053066;28;20602;-76
2023/04/18 07:31:24;;;;;;;19.40;17.30;;;;;;;;;;5054331;28;20881;-76
2023/04/18 07:33:54;;;;;;;18.43;14.83;;;;;;;;;;5053892;28;20472;-79
2023/04/18 07:36:24;;;;;;;17.70;15.87;;;;;;;;;;5053965;28;20472;-76
2023/04/18 07:38:55;;;;;;;22.23;15.80;;;;;;;;;;5053584;28;20616;-77
2023/04/18 07:41:30;;;;;;;18.07;16.13;;;;;;;;;;5054122;28;20452;-77
2023/04/18 07:43:59;;;;;;;17.87;15.97;;;;;;;;;;5054008;28;20484;-76
2023/04/18 07:46:27;;;;;;;20.50;15.17;;;;;;;;;;5053087;28;20496;-77
2023/04/18 07:48:56;;;;;;;16.30;14.60;;;;;;;;;;5052975;28;20504;-78
2023/04/18 07:51:29;;;;;;;16.67;14.97;;;;;;;;;;5053009;28;20475;-78
2023/04/18 07:54:00;;;;;;;17.60;15.17;;;;;;;;;;5052658;28;20494;-77
2023/04/18 07:56:27;;;;;;;19.83;15.73;;;;;;;;;;5052840;28;20549;-77
2023/04/18 07:58:55;;;;;;;16.23;14.53;;;;;;;;;;5053143;28;20477;-76
2023/04/18 08:01:25;;;;;;;18.60;16.33;;;;;;;;;;5054462;28;20537;-77
2023/04/18 08:03:54;;;;;;;17.80;16.00;;;;;;;;;;5053087;28;20441;-76
2023/04/18 08:06:25;;;;;;;19.57;16.07;;;;;;;;;;5054907;28;20473;-76
2023/04/18 08:08:52;;;;;;;17.50;15.70;;;;;;;;;;5054792;28;20990;-77
2023/04/18 08:11:20;;;;;;;20.80;15.80;;;;;;;;;;5054521;28;20453;-76
2023/04/18 08:13:52;;;;;;;15.63;14.03;;;;;;;;;;5053241;28;20950;-77
2023/04/18 08:16:20;;;;;;;17.33;14.70;;;;;;;;;;5051446;28;20540;-77
2023/04/18 08:18:47;;;;;;;17.83;15.93;;;;;;;;;;5051192;28;20998;-77
2023/04/18 08:21:18;;;;;;;20.37;16.50;;;;;;;;;;5052110;28;20457;-78
2023/04/18 08:23:50;;;;;;;17.47;14.73;;;;;;;;;;5052382;28;20454;-76
2023/04/18 08:26:18;;;;;;;16.27;14.57;;;;;;;;;;5050951;28;20446;-77
2023/04/18 08:28:46;;;;;;;18.30;16.13;;;;;;;;;;5051492;28;20499;-77
2023/04/18 08:31:13;;;;;;;17.30;15.50;;;;;;;;;;5052212;28;20536;-77
2023/04/18 08:33:41;;;;;;;16.80;15.07;;;;;;;;;;5051332;28;20454;-77
2023/04/18 08:36:10;;;;;;;17.53;15.73;;;;;;;;;;5052433;28;20462;-77
2023/04/18 08:38:38;;;;;;;17.80;16.00;;;;;;;;;;5053243;28;20496;-76
2023/04/18 08:41:07;;;;;;;16.97;15.27;;;;;;;;;;5053454;28;20449;-76
2023/04/18 08:43:40;;;;;;;17.17;15.37;;;;;;;;;;5053592;28;20826;-75
2023/04/18 08:46:08;;;;;;;17.47;15.67;;;;;;;;;;5055272;28;20512;-75
2023/04/18 08:48:41;;;;;;;17.40;15.60;;;;;;;;;;5055547;28;20458;-76
2023/04/18 08:51:09;;;;;;;17.07;15.33;;;;;;;;;;5057116;28;20446;-77
2023/04/18 08:53:38;;;;;;;16.70;14.90;;;;;;;;;;5061760;28;20452;-78
2023/04/18 08:56:13;;;;;;;17.00;15.20;;;;;;;;;;5066879;28;20873;-77
2023/04/18 08:58:41;;;;;;;15.93;14.27;;;;;;;;;;5070096;28;20473;-77
2023/04/18 09:01:08;;;;;;;18.00;15.43;;;;;;;;;;5068805;28;20442;-77
2023/04/18 09:03:38;;;;;;;16.57;14.87;;;;;;;;;;5066692;28;20442;-76
2023/04/18 09:06:11;;;;;;;16.57;15.07;;;;;;;;;;5067552;28;20456;-79
2023/04/18 09:08:38;;;;;;;15.67;14.23;;;;;;;;;;5068109;28;20777;-77
2023/04/18 09:11:23;;;;;;;15.90;14.33;;;;;;;;;;5063747;28;20537;-77
2023/04/18 09:13:51;;;;;;;16.07;14.47;;;;;;;;;;5062557;28;20454;-76
2023/04/18 09:16:19;;;;;;;16.10;14.50;;;;;;;;;;5055874;28;20502;-76
2023/04/18 09:19:02;;;;;;;16.23;14.63;;;;;;;;;;5055013;28;20475;-76
2023/04/18 09:21:31;;;;;;;17.33;15.60;;;;;;;;;;5053923;28;20453;-77
2023/04/18 09:24:16;;;;;;;18.30;16.47;;;;;;;;;;5058436;28;20511;-78
2023/04/18 09:26:50;;;;;;;18.47;15.07;;;;;;;;;;5060555;28;20541;-77
2023/04/18 09:29:21;;;;;;;18.37;16.43;;;;;;;;;;5059233;28;20449;-78
2023/04/18 09:32:00;;;;;;;18.20;16.37;;;;;;;;;;5057672;28;20794;-78
2023/04/18 09:34:32;;;;;;;17.07;15.27;;;;;;;;;;5056436;28;20460;-78
2023/04/18 09:37:13;;;;;;;17.57;15.67;;;;;;;;;;5056144;28;20586;-78
2023/04/18 09:39:41;;;;;;;19.10;16.40;;;;;;;;;;5055691;28;20469;-78
2023/04/18 09:42:10;;;;;;;17.60;15.70;;;;;;;;;;5055218;28;20515;-78
2023/04/18 09:44:58;;;;;;;18.87;16.20;;;;;;;;;;5055242;28;20457;-77
2023/04/18 09:47:27;;;;;;;17.87;15.77;;;;;;;;;;5055054;28;20492;-77
2023/04/18 09:49:55;;;;;;;17.20;15.50;;;;;;;;;;5054328;28;20904;-77
2023/04/18 09:52:24;;;;;;;16.27;14.60;;;;;;;;;;5054077;28;20939;-77
2023/04/18 09:54:58;;;;;;;18.80;15.47;;;;;;;;;;5055675;28;20540;-77
2023/04/18 09:57:29;;;;;;;16.90;15.00;;;;;;;;;;5054216;28;20527;-78
2023/04/18 10:00:05;;;;;;;16.33;14.60;;;;;;;;;;5055034;28;20477;-78
2023/04/18 10:02:46;;;;;;;16.67;15.10;;;;;;;;;;5055542;28;20453;-76
2023/04/18 10:05:21;;;;;;;15.40;13.90;;;;;;;;;;5056393;28;20453;-78
2023/04/18 10:07:56;;;;;;;16.10;14.30;;;;;;;;;;5055766;28;20480;-77
2023/04/18 10:10:28;;;;;;;16.87;15.10;;;;;;;;;;5056067;28;20539;-78
2023/04/18 10:12:59;;;;;;;15.73;14.20;;;;;;;;;;5055916;28;20462;-77
2023/04/18 10:15:28;;;;;;;15.27;13.97;;;;;;;;;;5056692;28;20450;-78
2023/04/18 10:17:57;;;;;;;15.90;14.40;;;;;;;;;;5056762;28;20540;-79
2023/04/18 10:20:28;;;;;;;18.10;16.40;;;;;;;;;;5057043;28;20603;-76
2023/04/18 10:23:00;;;;;;;15.60;14.10;;;;;;;;;;5057155;28;20453;-79
2023/04/18 10:25:46;;;;;;;14.43;13.00;;;;;;;;;;5057121;28;20504;-77
2023/04/18 10:28:16;;;;;;;17.43;13.63;;;;;;;;;;5057584;28;20469;-77
2023/04/18 10:30:57;;;;;;;14.47;13.07;;;;;;;;;;5056781;28;20560;-76
2023/04/18 10:33:34;;;;;;;12.90;11.70;;;;;;;;;;5055116;28;20468;-77
2023/04/18 10:36:06;;;;;;;14.20;12.70;;;;;;;;;;5055181;28;20457;-78
2023/04/18 10:38:34;;;;;;;13.37;12.07;;;;;;;;;;5055332;28;20500;-76
2023/04/18 10:41:18;;;;;;;12.87;11.73;;;;;;;;;;5056347;28;20880;-77
2023/04/18 10:44:06;;;;;;;13.23;12.00;;;;;;;;;;5055911;28;20430;-79
2023/04/18 10:46:35;;;;;;;12.80;11.60;;;;;;;;;;5052888;28;20496;-77
2023/04/18 10:49:22;;;;;;;12.13;11.03;;;;;;;;;;5053994;28;20501;-77
2023/04/18 10:51:51;;;;;;;12.23;11.03;;;;;;;;;;5055381;28;20861;-77
2023/04/18 10:54:21;;;;;;;11.90;10.80;;;;;;;;;;5055631;28;20449;-78
2023/04/18 10:56:55;;;;;;;12.37;11.17;;;;;;;;;;5057048;28;20519;-77
2023/04/18 10:59:25;;;;;;;11.50;10.50;;;;;;;;;;5057138;28;20550;-77
2023/04/18 11:02:01;;;;;;;12.60;11.40;;;;;;;;;;5057973;28;20457;-79
2023/04/18 11:04:29;;;;;;;11.97;10.87;;;;;;;;;;5058444;28;20464;-77
2023/04/18 11:06:57;;;;;;;11.17;10.17;;;;;;;;;;5058946;28;20481;-78
2023/04/18 11:09:31;;;;;;;10.90;10.00;;;;;;;;;;5059139;28;20438;-78
2023/04/18 11:12:08;;;;;;;10.73;9.73;;;;;;;;;;5058592;28;20845;-80
2023/04/18 11:14:45;;;;;;;11.00;10.10;;;;;;;;;;5056532;28;20521;-77
2023/04/18 11:17:18;;;;;;;16.30;9.97;;;;;;;;;;5056509;28;20449;-77
2023/04/18 11:19:46;;;;;;;9.70;8.90;;;;;;;;;;5035129;28;20493;-77
2023/04/18 11:22:14;;;;;;;9.47;8.67;;;;;;;;;;5037029;28;20831;-78
2023/04/18 11:24:42;;;;;;;9.10;8.27;;;;;;;;;;5035688;28;20474;-77
2023/04/18 11:27:15;;;;;;;9.00;8.10;;;;;;;;;;5036047;28;20479;-77
2023/04/18 11:29:43;;;;;;;8.30;7.60;;;;;;;;;;5034168;28;20812;-76
2023/04/18 11:32:15;;;;;;;8.60;7.80;;;;;;;;;;5034470;28;20465;-78
2023/04/18 11:34:45;;;;;;;9.90;9.00;;;;;;;;;;5032943;28;20940;-77
2023/04/18 11:37:15;;;;;;;9.70;8.70;;;;;;;;;;5033551;28;20474;-78
2023/04/18 11:39:44;;;;;;;8.70;8.00;;;;;;;;;;5033505;28;20485;-78
2023/04/18 11:42:12;;;;;;;9.10;8.30;;;;;;;;;;5033270;28;20446;-78
2023/04/18 11:44:42;;;;;;;8.60;7.70;;;;;;;;;;5032885;28;20459;-76
2023/04/18 11:47:22;;;;;;;9.03;8.03;;;;;;;;;;5031526;28;20478;-77
2023/04/18 11:49:57;;;;;;;9.80;8.97;;;;;;;;;;5034395;28;20442;-77
2023/04/18 11:52:26;;;;;;;8.70;7.80;;;;;;;;;;5033485;28;20485;-77
2023/04/18 11:54:53;;;;;;;8.40;7.70;;;;;;;;;;5033476;28;20448;-79
2023/04/18 11:57:22;;;;;;;8.17;7.57;;;;;;;;;;5032743;28;20563;-77
2023/04/18 11:59:54;;;;;;;9.23;8.33;;;;;;;;;;5031677;28;20855;-78
2023/04/18 12:02:22;;;;;;;9.80;8.80;;;;;;;;;;5032104;28;20466;-78
2023/04/18 12:05:00;;;;;;;10.00;9.10;;;;;;;;;;5032271;28;20457;-77
2023/04/18 12:07:33;;;;;;;10.90;10.00;;;;;;;;;;5031788;28;20513;-78
2023/04/18 12:10:00;;;;;;;11.27;10.17;;;;;;;;;;5032636;28;20438;-76
2023/04/18 12:12:28;;;;;;;11.43;10.30;;;;;;;;;;5032185;28;20675;-79
2023/04/18 12:15:03;;;;;;;11.83;10.60;;;;;;;;;;5032477;28;20450;-78
2023/04/18 12:17:34;;;;;;;10.70;9.63;;;;;;;;;;5034586;28;20517;-78
2023/04/18 12:20:02;;;;;;;10.90;9.90;;;;;;;;;;5052344;28;20848;-78
2023/04/18 12:22:42;;;;;;;19.43;10.83;;;;;;;;;;5054727;28;20464;-76
2023/04/18 12:25:22;;;;;;;10.20;9.20;;;;;;;;;;5052805;28;20467;-77
2023/04/18 12:27:59;;;;;;;11.00;9.90;;;;;;;;;;5051293;28;20535;-77
2023/04/18 12:30:28;;;;;;;10.03;9.23;;;;;;;;;;5051534;28;20496;-78
2023/04/18 12:32:57;;;;;;;9.33;8.53;;;;;;;;;;5051233;28;20462;-77
2023/04/18 12:35:26;;;;;;;12.03;8.87;;;;;;;;;;5051479;28;20476;-76
2023/04/18 12:38:00;;;;;;;8.40;7.60;;;;;;;;;;5051737;28;21005;-76
2023/04/18 12:40:32;;;;;;;8.33;7.53;;;;;;;;;;5053442;28;20477;-76
2023/04/18 12:43:01;;;;;;;7.50;6.90;;;;;;;;;;5052769;28;20507;-77
2023/04/18 12:45:33;;;;;;;8.30;7.00;;;;;;;;;;5051724;28;20453;-77
2023/04/18 12:48:05;;;;;;;9.07;7.03;;;;;;;;;;5051775;28;20850;-77
2023/04/18 12:50:39;;;;;;;7.67;6.97;;;;;;;;;;5051941;28;20488;-77
2023/04/18 12:53:12;;;;;;;7.00;6.30;;;;;;;;;;5057303;28;20441;-78
2023/04/18 12:55:40;;;;;;;7.30;6.70;;;;;;;;;;5052761;28;20515;-78
2023/04/18 12:58:08;;;;;;;7.90;7.20;;;;;;;;;;5052199;28;20457;-78
2023/04/18 13:00:38;;;;;;;7.50;7.00;;;;;;;;;;5056134;28;20478;-78
2023/04/18 13:03:06;;;;;;;6.30;5.87;;;;;;;;;;5054739;28;20458;-79
2023/04/18 13:05:33;;;;;;;7.60;6.90;;;;;;;;;;5055127;28;20456;-77
2023/04/18 13:08:02;;;;;;;7.07;6.40;;;;;;;;;;5054953;28;20631;-77
2023/04/18 13:10:32;;;;;;;6.40;5.90;;;;;;;;;;5054709;28;20839;-78
2023/04/18 13:13:00;;;;;;;7.53;6.83;;;;;;;;;;5055050;28;20445;-78
2023/04/18 13:15:31;;;;;;;7.93;6.90;;;;;;;;;;5055957;28;20449;-79
2023/04/18 13:18:03;;;;;;;7.47;6.87;;;;;;;;;;5056319;28;20974;-76
2023/04/18 13:20:31;;;;;;;7.90;6.30;;;;;;;;;;5055248;28;20481;-77
2023/04/18 13:23:05;;;;;;;6.67;6.07;;;;;;;;;;5056585;28;20813;-77
2023/04/18 13:25:35;;;;;;;7.07;5.77;;;;;;;;;;5056967;28;20449;-76
2023/04/18 13:28:09;;;;;;;5.93;5.43;;;;;;;;;;5057550;28;20534;-77
2023/04/18 13:30:43;;;;;;;5.83;5.43;;;;;;;;;;5056689;28;20570;-77
2023/04/18 13:33:15;;;;;;;5.60;5.20;;;;;;;;;;5055881;28;20456;-77
2023/04/18 13:35:43;;;;;;;6.10;5.60;;;;;;;;;;5056286;28;20454;-76
2023/04/18 13:38:13;;;;;;;6.73;6.13;;;;;;;;;;5055736;28;20473;-77
2023/04/18 13:40:44;;;;;;;5.40;5.00;;;;;;;;;;5056466;28;21081;-77
2023/04/18 13:43:18;;;;;;;5.73;5.23;;;;;;;;;;5057234;28;20437;-77
2023/04/18 13:45:49;;;;;;;5.97;5.47;;;;;;;;;;5056553;28;20449;-77
2023/04/18 13:48:20;;;;;;;6.27;5.77;;;;;;;;;;5056342;28;20477;-78
2023/04/18 13:50:48;;;;;;;5.57;5.17;;;;;;;;;;5056512;28;20457;-78
2023/04/18 13:53:17;;;;;;;6.13;5.60;;;;;;;;;;5057254;28;20869;-78
2023/04/18 13:55:48;;;;;;;6.20;5.60;;;;;;;;;;5056090;28;20796;-78
2023/04/18 13:58:21;;;;;;;7.73;6.03;;;;;;;;;;5056333;28;20476;-76
2023/04/18 14:00:50;;;;;;;6.23;5.73;;;;;;;;;;5055846;28;20483;-77
2023/04/18 14:03:21;;;;;;;5.63;5.13;;;;;;;;;;5055033;28;20452;-78
2023/04/18 14:05:49;;;;;;;5.27;4.77;;;;;;;;;;5054293;28;20549;-78
2023/04/18 14:08:17;;;;;;;4.90;4.60;;;;;;;;;;5054087;28;20735;-77
2023/04/18 14:10:49;;;;;;;5.40;5.00;;;;;;;;;;5053671;28;20485;-78
2023/04/18 14:13:18;;;;;;;5.87;5.47;;;;;;;;;;5054090;28;20457;-78
2023/04/18 14:15:48;;;;;;;5.73;5.07;;;;;;;;;;5054750;28;20430;-77
2023/04/18 14:18:20;;;;;;;5.43;5.03;;;;;;;;;;5053697;28;20491;-78
2023/04/18 14:20:47;;;;;;;5.70;5.30;;;;;;;;;;5053624;28;20547;-77
2023/04/18 14:23:15;;;;;;;6.30;5.70;;;;;;;;;;5053599;28;20457;-77
2023/04/18 14:25:43;;;;;;;6.17;5.67;;;;;;;;;;5054514;28;20426;-77
2023/04/18 14:28:17;;;;;;;6.87;6.37;;;;;;;;;;5054363;28;20477;-77
2023/04/18 14:33:35;;;;;;;6.40;5.90;;;;;;;;;;5056429;28;20971;-76
2023/04/18 14:36:07;;;;;;;5.93;5.53;;;;;;;;;;5057246;28;20544;-76
2023/04/18 14:38:40;;;;;;;9.10;8.40;;;;;;;;;;5058107;28;20629;-77
2023/04/18 14:41:07;;;;;;;10.43;9.53;;;;;;;;;;5057336;28;20500;-78
2023/04/18 14:43:44;;;;;;;5.90;5.40;;;;;;;;;;5059738;28;20882;-76
2023/04/18 14:46:18;;;;;;;9.23;8.53;;;;;;;;;;5059149;28;20438;-76
2023/04/18 14:48:47;;;;;;;5.93;5.43;;;;;;;;;;5061375;28;20487;-78
2023/04/18 14:51:16;;;;;;;6.83;6.13;;;;;;;;;;5058305;28;20450;-76
2023/04/18 14:53:45;;;;;;;6.07;5.47;;;;;;;;;;5058000;28;20870;-77
2023/04/18 14:56:19;;;;;;;6.33;5.83;;;;;;;;;;5056197;28;20437;-77
2023/04/18 14:58:49;;;;;;;5.73;5.27;;;;;;;;;;5055968;28;20434;-77
2023/04/18 15:01:17;;;;;;;6.60;6.13;;;;;;;;;;5055658;28;20479;-77
2023/04/18 15:03:51;;;;;;;6.50;5.80;;;;;;;;;;5055980;28;20449;-77
2023/04/18 15:06:19;;;;;;;11.10;10.10;;;;;;;;;;5055755;28;20448;-79
2023/04/18 15:08:47;;;;;;;6.30;5.80;;;;;;;;;;5056601;28;20458;-78
2023/04/18 15:11:16;;;;;;;6.37;5.87;;;;;;;;;;5057070;28;20441;-79
2023/04/18 15:13:49;;;;;;;6.07;5.57;;;;;;;;;;5057039;28;20467;-78
2023/04/18 15:16:17;;;;;;;6.93;5.57;;;;;;;;;;5055051;28;20444;-77
2023/04/18 15:18:49;;;;;;;5.80;5.30;;;;;;;;;;5054971;28;20458;-78
2023/04/18 15:21:16;;;;;;;6.03;5.43;;;;;;;;;;5052971;28;20500;-79
2023/04/18 15:23:44;;;;;;;5.40;4.93;;;;;;;;;;5052185;28;20511;-78
2023/04/18 15:26:11;;;;;;;5.80;5.30;;;;;;;;;;5053488;28;20484;-80
2023/04/18 15:28:45;;;;;;;6.27;5.67;;;;;;;;;;5052802;28;20458;-78
2023/04/18 15:31:15;;;;;;;5.80;5.20;;;;;;;;;;5050741;28;20517;-77
2023/04/18 15:33:46;;;;;;;5.60;5.10;;;;;;;;;;5051103;28;20460;-77
2023/04/18 15:36:16;;;;;;;6.07;5.27;;;;;;;;;;5052485;28;20433;-80
2023/04/18 15:38:44;;;;;;;5.27;4.80;;;;;;;;;;5053584;28;20463;-77